Terminal Aerodrome Forecast
Issued by NWS

Home | Current Version | Previous Version | Text Only | Print | Product List | Glossary On
Versions: 1 2 3 4 5 6 7 8 9 10 11 12 13 14 15 16 17 18 19 20 21 22 23 24 25 26 27 28 29 30 31 32 33 34 35 36 37 38
000
FTUS45 KBOU 272351 AAA
TAFAPA
TAF AMD
KAPA 272351Z 2800/2824 35008KT P6SM SCT030 BKN060
     FM280100 34009KT P6SM VCSH BKN035 BKN050 BKN080
     FM280300 28007KT P6SM SCT060 BKN100
     FM280600 19006KT P6SM FEW070 SCT120 BKN200
     FM281700 29008KT P6SM FEW120 SCT220
     FM282100 33012KT P6SM FEW080 SCT120 BKN200=

USA.gov is the U.S. government's official web portal to all federal, state and local government web resources and services.